createdAt,value
2019-04-10T00:01:19.563Z,9.20
2019-04-10T00:03:50.611Z,9.20
2019-04-10T00:06:21.762Z,9.30
2019-04-10T00:08:52.908Z,9.20
2019-04-10T00:11:24.914Z,9.30
2019-04-10T00:13:55.963Z,9.30
2019-04-10T00:16:27.799Z,9.20
2019-04-10T00:18:58.767Z,9.20
2019-04-10T00:21:29.743Z,9.30
2019-04-10T00:24:01.603Z,9.30
2019-04-10T00:26:33.858Z,9.20
2019-04-10T00:29:05.757Z,9.20
2019-04-10T00:31:36.817Z,9.20
2019-04-10T00:34:07.771Z,9.10
2019-04-10T00:36:39.388Z,9.20
2019-04-10T00:39:10.526Z,9.20
2019-04-10T00:41:41.622Z,9.20
2019-04-10T00:44:13.339Z,9.30
2019-04-10T00:46:44.460Z,9.30
2019-04-10T00:49:15.608Z,9.30
2019-04-10T00:51:47.780Z,9.30
2019-04-10T00:54:18.754Z,9.30
2019-04-10T00:56:50.623Z,9.30
2019-04-10T00:59:21.652Z,9.30
2019-04-10T01:01:52.640Z,9.10
2019-04-10T01:04:24.493Z,9.10
2019-04-10T01:06:56.612Z,9.10
2019-04-10T01:09:27.655Z,9.10
2019-04-10T01:11:59.349Z,9.20
2019-04-10T01:14:31.815Z,9.10
2019-04-10T01:17:02.795Z,9.10
2019-04-10T01:19:34.315Z,9.20
2019-04-10T01:22:06.475Z,9.20
2019-04-10T01:24:37.680Z,9.10
2019-04-10T01:27:09.514Z,9.20
2019-04-10T01:29:41.826Z,9.10
2019-04-10T01:32:12.889Z,9.30
2019-04-10T01:34:43.830Z,9.20
2019-04-10T01:37:14.811Z,9.20
2019-04-10T01:39:46.463Z,9.30
2019-04-10T01:42:18.698Z,9.20
2019-04-10T01:44:49.717Z,9.30
2019-04-10T01:47:21.340Z,9.30
2019-04-10T01:49:52.358Z,9.30
2019-04-10T01:52:23.330Z,9.20
2019-04-10T01:54:55.440Z,9.30
2019-04-10T01:57:26.432Z,9.30
2019-04-10T01:59:58.277Z,9.30
2019-04-10T02:02:31.614Z,9.30
2019-04-10T02:05:03.939Z,9.40
2019-04-10T02:07:35.171Z,9.50
2019-04-10T02:10:08.332Z,9.50
2019-04-10T02:12:39.276Z,9.30
2019-04-10T02:15:13.907Z,9.20
2019-04-10T02:17:44.423Z,9.30
2019-04-10T02:20:15.711Z,9.10
2019-04-10T02:22:47.763Z,9.10
2019-04-10T02:25:19.923Z,9.10
2019-04-10T02:27:50.977Z,9.10
2019-04-10T02:30:23.895Z,9.00
2019-04-10T02:32:54.765Z,8.90
2019-04-10T02:35:25.737Z,8.80
2019-04-10T02:37:58.958Z,8.80
2019-04-10T02:40:30.853Z,8.80
2019-04-10T02:43:03.249Z,8.90
2019-04-10T02:45:34.644Z,9.00
2019-04-10T02:48:06.444Z,9.00
2019-04-10T02:50:38.410Z,9.10
2019-04-10T02:53:10.785Z,9.00
2019-04-10T02:55:43.189Z,8.90
2019-04-10T02:58:14.395Z,8.80
2019-04-10T03:00:46.353Z,8.80
2019-04-10T03:03:18.063Z,8.90
2019-04-10T03:05:49.077Z,8.90
2019-04-10T03:08:38.287Z,8.70
2019-04-10T03:10:59.712Z,8.80
2019-04-10T03:13:27.709Z,9.00
2019-04-10T03:15:59.939Z,9.00
2019-04-10T03:18:31.187Z,9.00
2019-04-10T03:21:02.725Z,9.10
2019-04-10T03:23:33.823Z,9.10
2019-04-10T03:26:05.584Z,9.10
2019-04-10T03:28:36.627Z,9.10
2019-04-10T03:31:08.046Z,9.10
2019-04-10T03:33:47.267Z,9.10
2019-04-10T03:36:16.372Z,9.20
2019-04-10T03:38:56.243Z,9.10
2019-04-10T03:41:19.989Z,9.20
2019-04-10T03:43:52.098Z,9.10
2019-04-10T03:46:23.509Z,9.10
2019-04-10T03:48:55.573Z,9.10
2019-04-10T03:51:26.578Z,9.20
2019-04-10T03:53:58.415Z,9.10
2019-04-10T03:56:29.698Z,9.00
2019-04-10T03:59:00.729Z,8.90
2019-04-10T04:01:32.054Z,9.00
2019-04-10T04:04:03.141Z,8.90
2019-04-10T04:06:34.088Z,9.00
2019-04-10T04:09:10.860Z,9.00
2019-04-10T04:11:39.907Z,9.10
2019-04-10T04:14:10.981Z,9.10
2019-04-10T04:16:41.962Z,8.90
2019-04-10T04:19:13.546Z,8.90
2019-04-10T04:21:44.553Z,8.90
2019-04-10T04:24:15.645Z,8.90
2019-04-10T04:26:46.641Z,8.80
2019-04-10T04:29:18.452Z,8.90
2019-04-10T04:31:50.592Z,8.80
2019-04-10T04:34:21.656Z,8.80
2019-04-10T04:36:53.599Z,8.90
2019-04-10T04:39:26.922Z,8.90
2019-04-10T04:41:57.227Z,8.80
2019-04-10T04:44:29.214Z,8.70
2019-04-10T04:47:01.175Z,8.80
2019-04-10T04:49:32.165Z,8.80
2019-04-10T04:52:03.142Z,8.90
2019-04-10T04:54:34.089Z,8.90
2019-04-10T04:57:05.053Z,8.90
2019-04-10T04:59:36.554Z,8.90
2019-04-10T05:02:07.915Z,8.90
2019-04-10T05:04:39.580Z,8.90
2019-04-10T05:07:11.045Z,8.80
2019-04-10T05:09:42.302Z,8.70
2019-04-10T05:12:20.366Z,8.70
2019-04-10T05:14:51.624Z,8.70
2019-04-10T05:17:22.663Z,8.90
2019-04-10T05:19:54.564Z,9.10
2019-04-10T05:22:26.452Z,9.00
2019-04-10T05:24:57.534Z,9.10
2019-04-10T05:27:28.478Z,9.10
2019-04-10T05:29:59.960Z,9.10
2019-04-10T05:32:30.974Z,9.10
2019-04-10T05:35:05.179Z,9.10
2019-04-10T05:37:34.593Z,9.10
2019-04-10T05:40:07.792Z,9.00
2019-04-10T05:42:39.524Z,9.00
2019-04-10T05:45:10.670Z,9.00
2019-04-10T05:47:42.300Z,8.90
2019-04-10T05:50:13.556Z,8.70
2019-04-10T05:52:45.141Z,8.50
2019-04-10T05:55:16.216Z,8.50
2019-04-10T05:57:47.185Z,8.40
2019-04-10T06:00:18.994Z,8.50
2019-04-10T06:02:50.977Z,8.50
2019-04-10T06:05:22.339Z,8.50
2019-04-10T06:07:53.819Z,8.60
2019-04-10T06:10:24.886Z,8.80
2019-04-10T06:12:55.837Z,9.00
2019-04-10T06:15:26.820Z,8.90
2019-04-10T06:17:58.735Z,8.80
2019-04-10T06:20:29.813Z,8.80
2019-04-10T06:23:01.262Z,8.60
2019-04-10T06:25:35.357Z,8.60
2019-04-10T06:28:05.346Z,8.60
2019-04-10T06:30:36.425Z,8.60
2019-04-10T06:33:07.590Z,8.70
2019-04-10T06:35:39.543Z,8.80
2019-04-10T06:38:10.817Z,8.80
2019-04-10T06:40:41.999Z,8.90
2019-04-10T06:43:13.031Z,9.00
2019-04-10T06:45:44.094Z,8.90
2019-04-10T06:48:15.116Z,9.00
2019-04-10T06:50:46.119Z,8.90
2019-04-10T06:53:18.567Z,8.90
2019-04-10T06:55:49.721Z,8.90
2019-04-10T06:58:20.655Z,9.00
2019-04-10T07:00:53.381Z,9.10
2019-04-10T07:03:28.932Z,9.20
2019-04-10T07:06:06.049Z,9.40
2019-04-10T07:08:29.737Z,9.60
2019-04-10T07:11:06.058Z,9.60
2019-04-10T07:13:36.825Z,9.70
2019-04-10T07:16:06.198Z,10.00
2019-04-10T07:18:38.334Z,10.10
2019-04-10T07:21:10.591Z,10.30
2019-04-10T07:23:42.865Z,10.40
2019-04-10T07:26:18.494Z,10.50
2019-04-10T07:28:47.883Z,10.70
2019-04-10T07:31:19.458Z,11.00
2019-04-10T07:33:51.916Z,10.80
2019-04-10T07:36:23.225Z,10.80
2019-04-10T07:38:56.212Z,11.00
2019-04-10T07:41:26.850Z,11.00
2019-04-10T07:43:58.325Z,11.10
2019-04-10T07:46:31.112Z,11.20
2019-04-10T07:49:02.941Z,11.30
2019-04-10T07:51:34.146Z,11.30
2019-04-10T07:54:06.042Z,11.30
2019-04-10T07:56:37.503Z,11.40
2019-04-10T07:59:08.812Z,11.50
2019-04-10T08:01:40.601Z,11.70
2019-04-10T08:04:12.545Z,11.70
2019-04-10T08:06:44.623Z,11.60
2019-04-10T08:09:16.524Z,11.50
2019-04-10T08:11:48.833Z,11.50
2019-04-10T08:14:19.842Z,11.30
2019-04-10T08:16:51.874Z,11.10
2019-04-10T08:19:25.298Z,11.20
2019-04-10T08:21:55.598Z,11.10
2019-04-10T08:24:26.564Z,11.10
2019-04-10T08:26:58.542Z,11.00
2019-04-10T08:29:30.256Z,11.20
2019-04-10T08:32:01.365Z,11.10
2019-04-10T08:34:33.563Z,11.10
2019-04-10T08:37:04.856Z,11.00
2019-04-10T08:39:41.121Z,10.80
2019-04-10T08:42:08.615Z,10.40
2019-04-10T08:44:40.389Z,10.10
2019-04-10T08:47:11.432Z,9.90
2019-04-10T08:49:43.242Z,9.60
2019-04-10T08:52:14.890Z,9.40
2019-04-10T08:54:45.835Z,9.40
2019-04-10T08:57:17.164Z,9.30
2019-04-10T08:59:48.350Z,9.40
2019-04-10T09:02:20.097Z,9.30
2019-04-10T09:04:51.108Z,9.50
2019-04-10T09:07:22.371Z,9.50
2019-04-10T09:09:54.171Z,9.50
2019-04-10T09:12:26.056Z,9.50
2019-04-10T09:14:57.251Z,9.50
2019-04-10T09:17:28.220Z,9.50
2019-04-10T09:20:00.457Z,9.60
2019-04-10T09:22:44.535Z,9.50
2019-04-10T09:25:06.954Z,9.30
2019-04-10T09:27:39.957Z,9.40
2019-04-10T09:30:11.227Z,9.40
2019-04-10T09:32:42.408Z,9.40
2019-04-10T09:35:14.124Z,9.60
2019-04-10T09:37:46.192Z,9.60
2019-04-10T09:40:18.277Z,9.50
2019-04-10T09:42:50.028Z,9.70
2019-04-10T09:45:22.279Z,9.60
2019-04-10T09:47:53.674Z,9.50
2019-04-10T09:50:25.110Z,9.60
2019-04-10T09:52:57.103Z,9.60
2019-04-10T09:55:28.051Z,9.80
2019-04-10T09:58:00.155Z,9.80
2019-04-10T10:00:31.923Z,10.00
2019-04-10T10:03:03.472Z,10.00
2019-04-10T10:05:34.859Z,10.20
2019-04-10T10:08:06.474Z,10.40
2019-04-10T10:10:39.886Z,10.50
2019-04-10T10:13:11.125Z,10.60
2019-04-10T10:15:43.111Z,10.40
2019-04-10T10:18:14.225Z,10.40
2019-04-10T10:20:46.005Z,10.70
2019-04-10T10:23:18.607Z,10.70
2019-04-10T10:25:49.594Z,10.60
2019-04-10T10:28:20.818Z,10.60
2019-04-10T10:30:51.790Z,10.60
2019-04-10T10:33:23.692Z,10.60
2019-04-10T10:35:55.648Z,10.60
2019-04-10T10:38:27.375Z,10.60
2019-04-10T10:40:59.493Z,10.70
2019-04-10T10:43:30.441Z,10.80
2019-04-10T10:46:01.620Z,11.00
2019-04-10T10:48:32.660Z,11.00
2019-04-10T10:51:04.610Z,11.10
2019-04-10T10:53:36.462Z,11.30
2019-04-10T10:56:07.625Z,11.30
2019-04-10T10:58:39.654Z,11.20
2019-04-10T11:01:11.739Z,11.10
2019-04-10T11:03:42.682Z,11.00
2019-04-10T11:06:13.674Z,10.90
2019-04-10T11:08:45.815Z,10.70
2019-04-10T11:11:17.182Z,10.70
2019-04-10T11:13:48.488Z,10.70
2019-04-10T11:16:19.478Z,10.70
2019-04-10T11:18:50.911Z,10.60
2019-04-10T11:21:22.815Z,10.70
2019-04-10T11:23:55.509Z,10.60
2019-04-10T11:26:27.624Z,10.60
2019-04-10T11:28:58.722Z,10.60
2019-04-10T11:31:29.698Z,10.70
2019-04-10T11:34:02.206Z,10.90
2019-04-10T11:36:34.429Z,11.10
2019-04-10T11:41:41.343Z,10.90
2019-04-10T11:44:15.988Z,10.90
2019-04-10T11:46:46.235Z,10.90
2019-04-10T11:49:19.417Z,11.10
2019-04-10T11:51:52.727Z,11.20
2019-04-10T11:54:26.626Z,11.30
2019-04-10T11:56:58.482Z,11.40
2019-04-10T11:59:31.543Z,11.40
2019-04-10T12:07:09.788Z,11.60
2019-04-10T12:12:13.300Z,11.70
2019-04-10T12:14:44.340Z,11.60
2019-04-10T12:17:16.032Z,11.50
2019-04-10T12:19:47.134Z,11.40
2019-04-10T12:22:19.084Z,11.30
2019-04-10T12:24:51.300Z,11.30
2019-04-10T12:27:23.078Z,11.40
2019-04-10T12:29:55.121Z,11.50
2019-04-10T12:32:26.169Z,11.70
2019-04-10T12:34:58.069Z,11.90
2019-04-10T12:37:29.187Z,12.30
2019-04-10T12:40:01.208Z,12.60
2019-04-10T12:42:32.413Z,12.90
2019-04-10T12:45:04.728Z,13.30
2019-04-10T12:47:35.818Z,13.70
2019-04-10T12:50:08.948Z,13.80
2019-04-10T12:52:40.886Z,13.90
2019-04-10T12:55:12.480Z,13.90
2019-04-10T12:57:43.507Z,14.00
2019-04-10T13:00:18.090Z,14.00
2019-04-10T13:02:50.360Z,14.00
2019-04-10T13:05:21.468Z,14.00
2019-04-10T13:07:52.417Z,13.90
2019-04-10T13:10:23.397Z,14.00
2019-04-10T13:12:55.577Z,13.80
2019-04-10T13:15:27.597Z,13.70
2019-04-10T13:17:58.656Z,13.70
2019-04-10T13:20:29.634Z,13.40
2019-04-10T13:23:00.586Z,13.30
2019-04-10T13:25:32.440Z,13.10
2019-04-10T13:28:03.500Z,13.00
2019-04-10T13:30:44.643Z,12.70
2019-04-10T13:33:08.735Z,12.60
2019-04-10T13:35:39.997Z,12.60
2019-04-10T13:38:11.146Z,12.40
2019-04-10T13:40:42.096Z,12.40
2019-04-10T13:43:13.756Z,12.50
2019-04-10T13:45:45.835Z,12.50
2019-04-10T13:48:16.867Z,12.60
2019-04-10T13:50:48.687Z,12.60
2019-04-10T13:53:19.787Z,12.60
2019-04-10T13:55:50.733Z,12.60
2019-04-10T13:58:21.731Z,12.40
2019-04-10T14:00:53.607Z,12.40
2019-04-10T14:03:24.633Z,12.40
2019-04-10T14:05:55.586Z,12.50
2019-04-10T14:08:40.650Z,12.50
2019-04-10T14:11:00.461Z,12.50
2019-04-10T14:13:31.737Z,12.50
2019-04-10T14:16:02.854Z,12.50
2019-04-10T14:18:34.829Z,12.60
2019-04-10T14:21:11.050Z,12.70
2019-04-10T14:23:39.531Z,12.70
2019-04-10T14:26:18.290Z,12.80
2019-04-10T14:28:49.430Z,12.90
2019-04-10T14:31:23.122Z,13.10
2019-04-10T14:34:06.575Z,13.10
2019-04-10T14:36:38.093Z,13.20
2019-04-10T14:39:18.296Z,13.20
2019-04-10T14:41:47.213Z,13.30
2019-04-10T14:44:18.201Z,13.50
2019-04-10T14:46:49.712Z,13.60
2019-04-10T14:49:20.909Z,13.70
2019-04-10T14:51:52.657Z,13.60
2019-04-10T14:54:23.888Z,13.60
2019-04-10T14:56:54.921Z,13.70
2019-04-10T14:59:26.224Z,13.60
2019-04-10T15:01:58.026Z,13.40
2019-04-10T15:04:29.097Z,13.40
2019-04-10T15:07:00.339Z,13.20
2019-04-10T15:09:31.320Z,13.20
2019-04-10T15:12:02.815Z,13.20
2019-04-10T15:14:34.015Z,13.00
2019-04-10T15:17:06.606Z,12.80
2019-04-10T15:19:38.140Z,12.70
2019-04-10T15:22:09.543Z,12.60
2019-04-10T15:24:40.519Z,12.60
2019-04-10T15:27:11.496Z,12.60
2019-04-10T15:29:43.004Z,12.50
2019-04-10T15:32:14.657Z,12.30
2019-04-10T15:34:46.036Z,12.40
2019-04-10T15:37:17.217Z,12.50
2019-04-10T15:39:48.241Z,12.50
2019-04-10T15:42:19.733Z,12.50
2019-04-10T15:44:50.727Z,12.30
2019-04-10T15:47:23.408Z,12.20
2019-04-10T15:49:54.572Z,12.10
2019-04-10T15:52:25.615Z,12.00
2019-04-10T15:54:57.368Z,11.90
2019-04-10T15:57:28.954Z,11.80
2019-04-10T16:00:00.875Z,11.80
2019-04-10T16:02:33.848Z,11.80
2019-04-10T16:05:07.143Z,11.90
2019-04-10T16:07:39.737Z,12.00
2019-04-10T16:10:25.922Z,11.90
2019-04-10T16:12:59.534Z,11.80
2019-04-10T16:15:32.503Z,11.60
2019-04-10T16:18:11.377Z,11.50
2019-04-10T16:20:43.203Z,11.40
2019-04-10T16:23:18.633Z,11.20
2019-04-10T16:25:52.221Z,11.10
2019-04-10T16:28:24.400Z,10.90
2019-04-10T16:30:55.458Z,10.90
2019-04-10T16:33:27.353Z,10.60
2019-04-10T16:35:59.033Z,10.60
2019-04-10T16:38:31.069Z,10.60
2019-04-10T16:41:03.164Z,10.50
2019-04-10T16:43:34.110Z,10.50
2019-04-10T16:46:05.101Z,10.30
2019-04-10T16:48:36.053Z,10.10
2019-04-10T16:51:08.007Z,9.90
2019-04-10T16:53:39.067Z,9.90
2019-04-10T16:56:10.049Z,9.80
2019-04-10T16:58:41.678Z,9.70
2019-04-10T17:01:14.655Z,9.60
2019-04-10T17:03:46.285Z,9.70
2019-04-10T17:06:17.795Z,9.70
2019-04-10T17:08:49.082Z,9.80
2019-04-10T17:11:21.015Z,9.80
2019-04-10T17:13:52.943Z,9.70
2019-04-10T17:16:24.009Z,9.70
2019-04-10T17:18:55.222Z,9.60
2019-04-10T17:21:28.192Z,9.70
2019-04-10T17:23:58.914Z,9.60
2019-04-10T17:26:31.005Z,9.50
2019-04-10T17:29:03.107Z,9.50
2019-04-10T17:31:35.024Z,9.50
2019-04-10T17:34:06.267Z,9.40
2019-04-10T17:36:37.318Z,9.40
2019-04-10T17:39:11.252Z,9.50
2019-04-10T17:41:42.308Z,9.50
2019-04-10T17:44:13.730Z,9.60
2019-04-10T17:46:44.868Z,9.60
2019-04-10T17:49:17.015Z,9.50
2019-04-10T17:51:48.086Z,9.50
2019-04-10T17:54:20.017Z,9.40
2019-04-10T17:56:51.088Z,9.40
2019-04-10T17:59:22.511Z,9.50
2019-04-10T18:01:54.028Z,9.60
2019-04-10T18:04:26.215Z,9.60
2019-04-10T18:06:57.497Z,9.50
2019-04-10T18:09:28.577Z,9.50
2019-04-10T18:12:00.994Z,9.50
2019-04-10T18:14:35.157Z,9.70
2019-04-10T18:17:05.007Z,9.70
2019-04-10T18:19:36.422Z,9.70
2019-04-10T18:22:07.507Z,9.60
2019-04-10T18:24:38.470Z,9.60
2019-04-10T18:27:09.468Z,9.60
2019-04-10T18:29:41.377Z,9.50
2019-04-10T18:32:13.699Z,9.40
2019-04-10T18:34:44.850Z,9.30
2019-04-10T18:37:19.127Z,9.30
2019-04-10T18:39:48.632Z,9.20
2019-04-10T18:42:19.673Z,9.20
2019-04-10T18:44:50.663Z,9.30
2019-04-10T18:47:21.851Z,9.20
2019-04-10T18:49:53.887Z,9.20
2019-04-10T18:52:25.468Z,9.10
2019-04-10T18:54:57.045Z,9.10
2019-04-10T18:57:29.850Z,9.10
2019-04-10T19:00:05.997Z,9.10
2019-04-10T19:02:55.646Z,9.10
2019-04-10T19:05:31.878Z,9.00
2019-04-10T19:08:03.069Z,9.00
2019-04-10T19:10:34.657Z,8.90
2019-04-10T19:13:05.704Z,8.90
2019-04-10T19:15:37.178Z,9.10
2019-04-10T19:18:09.250Z,9.00
2019-04-10T19:20:40.643Z,8.90
2019-04-10T19:23:12.929Z,8.90
2019-04-10T19:25:45.484Z,8.90
2019-04-10T19:28:28.876Z,9.00
2019-04-10T19:30:53.571Z,9.00
2019-04-10T19:33:24.532Z,8.90
2019-04-10T19:35:55.527Z,8.90
2019-04-10T19:38:27.440Z,8.80
2019-04-10T19:40:58.564Z,8.80
2019-04-10T19:43:30.528Z,8.70
2019-04-10T19:46:02.222Z,8.70
2019-04-10T19:48:33.173Z,8.70
2019-04-10T19:51:04.163Z,8.90
2019-04-10T19:53:35.312Z,9.00
2019-04-10T19:56:06.557Z,8.80
2019-04-10T19:58:38.532Z,8.80
2019-04-10T20:01:11.242Z,8.70
2019-04-10T20:03:42.303Z,8.60
2019-04-10T20:06:14.219Z,8.70
2019-04-10T20:08:46.023Z,8.70
2019-04-10T20:11:17.082Z,8.60
2019-04-10T20:13:51.250Z,8.60
2019-04-10T20:16:22.789Z,8.60
2019-04-10T20:18:53.875Z,8.60
2019-04-10T20:21:25.830Z,8.60
2019-04-10T20:23:56.982Z,8.50
2019-04-10T20:26:27.983Z,8.40
2019-04-10T20:28:59.199Z,8.30
2019-04-10T20:31:31.781Z,8.20
2019-04-10T20:34:03.268Z,8.20
2019-04-10T20:36:35.292Z,8.20
2019-04-10T20:39:09.360Z,8.10
2019-04-10T20:41:48.657Z,8.10
2019-04-10T20:44:13.196Z,8.10
2019-04-10T20:46:44.508Z,8.20
2019-04-10T20:49:16.328Z,8.20
2019-04-10T20:51:47.718Z,8.10
2019-04-10T20:54:20.370Z,8.10
2019-04-10T20:56:51.761Z,8.00
2019-04-10T20:59:22.803Z,8.20
2019-04-10T21:01:53.834Z,8.20
2019-04-10T21:04:27.919Z,8.10
2019-04-10T21:06:58.970Z,8.00
2019-04-10T21:09:30.053Z,8.10
2019-04-10T21:12:06.738Z,8.10
2019-04-10T21:14:33.825Z,8.10
2019-04-10T21:17:04.820Z,8.10
2019-04-10T21:19:35.830Z,8.10
2019-04-10T21:22:08.041Z,8.10
2019-04-10T21:24:39.140Z,8.20
2019-04-10T21:27:11.206Z,8.10
2019-04-10T21:29:46.779Z,8.10
2019-04-10T21:32:35.201Z,8.10
2019-04-10T21:35:12.076Z,8.00
2019-04-10T21:37:43.068Z,8.00
2019-04-10T21:40:14.505Z,7.90
2019-04-10T21:42:45.484Z,7.90
2019-04-10T21:45:16.464Z,7.90
2019-04-10T21:47:48.167Z,7.80
2019-04-10T21:50:20.001Z,7.70
2019-04-10T21:52:51.930Z,7.70
2019-04-10T21:55:23.653Z,7.80
2019-04-10T21:57:55.442Z,7.80
2019-04-10T22:00:45.154Z,7.80
2019-04-10T22:03:16.845Z,7.80
2019-04-10T22:05:51.047Z,7.80
2019-04-10T22:08:27.429Z,7.90
2019-04-10T22:10:58.849Z,7.90
2019-04-10T22:13:30.233Z,7.90
2019-04-10T22:16:01.789Z,7.90
2019-04-10T22:18:33.698Z,8.00
2019-04-10T22:21:06.008Z,8.00
2019-04-10T22:23:37.063Z,8.00
2019-04-10T22:26:08.042Z,7.90
2019-04-10T22:28:39.357Z,7.90
2019-04-10T22:31:11.452Z,8.00
2019-04-10T22:33:42.722Z,8.00
2019-04-10T22:36:14.897Z,8.00
2019-04-10T22:38:46.183Z,8.00
2019-04-10T22:41:23.675Z,8.00
2019-04-10T22:43:49.934Z,8.10
2019-04-10T22:46:21.932Z,8.10
2019-04-10T22:48:53.448Z,8.10
2019-04-10T22:51:24.797Z,8.00
2019-04-10T22:53:55.831Z,8.00
2019-04-10T22:56:26.783Z,7.90
2019-04-10T22:58:57.783Z,7.90
2019-04-10T23:01:29.290Z,8.00
2019-04-10T23:04:01.655Z,8.00
2019-04-10T23:06:33.314Z,8.00
2019-04-10T23:09:06.155Z,8.00
2019-04-10T23:11:41.842Z,7.90
2019-04-10T23:14:10.269Z,7.90
2019-04-10T23:16:41.221Z,8.00
2019-04-10T23:19:12.203Z,8.00
2019-04-10T23:21:43.153Z,8.00
2019-04-10T23:24:14.140Z,7.90
2019-04-10T23:26:45.091Z,8.00
2019-04-10T23:29:16.078Z,7.90
2019-04-10T23:31:47.977Z,8.00
2019-04-10T23:34:19.094Z,7.90
2019-04-10T23:36:50.772Z,7.90
2019-04-10T23:39:21.907Z,8.00
2019-04-10T23:41:52.855Z,7.90
2019-04-10T23:44:24.763Z,7.80
2019-04-10T23:46:55.875Z,7.80
2019-04-10T23:49:27.707Z,7.80
2019-04-10T23:51:59.689Z,7.80
2019-04-10T23:54:30.671Z,7.70
2019-04-10T23:57:01.624Z,7.70
2019-04-10T23:59:32.994Z,7.70
